createdAt,value
2023-10-23T00:02:10.700Z,80.99
2023-10-23T00:04:37.586Z,80.75
2023-10-23T00:07:04.650Z,80.31
2023-10-23T00:09:31.227Z,80.46
2023-10-23T00:11:57.733Z,81.67
2023-10-23T00:14:24.310Z,81.37
2023-10-23T00:16:51.542Z,81.31
2023-10-23T00:19:18.190Z,80.82
2023-10-23T00:21:45.655Z,80.73
2023-10-23T00:24:12.248Z,80.57
2023-10-23T00:26:38.750Z,81.68
2023-10-23T00:29:05.401Z,81.13
2023-10-23T00:31:32.021Z,81.26
2023-10-23T00:33:58.691Z,81.42
2023-10-23T00:36:25.272Z,80.80
2023-10-23T00:38:53.280Z,80.53
2023-10-23T00:41:19.790Z,80.46
2023-10-23T00:43:46.396Z,81.05
2023-10-23T00:46:19.907Z,80.58
2023-10-23T00:48:50.823Z,80.86
2023-10-23T00:51:20.649Z,80.17
2023-10-23T00:53:48.133Z,80.94
2023-10-23T00:56:15.058Z,80.51
2023-10-23T00:58:43.661Z,79.92
2023-10-23T01:01:13.286Z,80.54
2023-10-23T01:03:41.069Z,80.89
2023-10-23T01:06:07.878Z,81.13
2023-10-23T01:08:34.695Z,80.86
2023-10-23T01:11:01.301Z,80.87
2023-10-23T01:13:28.213Z,80.47
2023-10-23T01:15:55.119Z,80.80
2023-10-23T01:18:21.826Z,80.48
2023-10-23T01:20:49.443Z,80.54
2023-10-23T01:23:16.049Z,80.45
2023-10-23T01:25:42.708Z,80.33
2023-10-23T01:28:09.311Z,80.23
2023-10-23T01:30:35.985Z,80.93
2023-10-23T01:33:02.709Z,80.60
2023-10-23T01:35:29.224Z,80.20
2023-10-23T01:37:56.509Z,79.71
2023-10-23T01:40:24.238Z,79.77
2023-10-23T01:42:51.033Z,79.55
2023-10-23T01:45:20.064Z,79.41
2023-10-23T01:47:47.329Z,79.71
2023-10-23T01:50:13.908Z,79.64
2023-10-23T01:52:42.469Z,78.96
2023-10-23T01:55:09.879Z,78.61
2023-10-23T01:57:36.547Z,78.97
2023-10-23T02:00:05.745Z,79.11
2023-10-23T02:02:42.168Z,79.72
2023-10-23T02:05:09.216Z,79.61
2023-10-23T02:07:35.907Z,80.44
2023-10-23T02:10:02.600Z,81.22
2023-10-23T02:12:29.212Z,80.49
2023-10-23T02:14:56.834Z,80.54
2023-10-23T02:17:23.484Z,81.02
2023-10-23T02:19:50.150Z,80.52
2023-10-23T02:22:19.689Z,79.75
2023-10-23T02:24:47.069Z,79.64
2023-10-23T02:27:14.340Z,79.50
2023-10-23T02:29:43.835Z,79.64
2023-10-23T02:32:12.259Z,79.60
2023-10-23T02:34:39.550Z,78.75
2023-10-23T02:37:08.354Z,79.18
2023-10-23T02:39:34.919Z,79.45
2023-10-23T02:42:02.600Z,79.91
2023-10-23T02:44:29.607Z,78.99
2023-10-23T02:46:56.430Z,79.49
2023-10-23T02:49:24.388Z,79.04
2023-10-23T02:51:51.093Z,79.30
2023-10-23T02:54:17.855Z,79.15
2023-10-23T02:56:44.421Z,79.47
2023-10-23T02:59:11.132Z,79.73
2023-10-23T03:01:39.042Z,79.82
2023-10-23T03:04:06.202Z,79.52
2023-10-23T03:06:34.327Z,78.96
2023-10-23T03:09:00.911Z,78.01
2023-10-23T03:11:27.499Z,79.21
2023-10-23T03:13:54.047Z,79.89
2023-10-23T03:16:20.806Z,79.16
2023-10-23T03:18:47.415Z,79.07
2023-10-23T03:21:14.104Z,78.66
2023-10-23T03:23:40.635Z,79.14
2023-10-23T03:26:07.205Z,78.96
2023-10-23T03:28:33.840Z,78.93
2023-10-23T03:31:04.632Z,80.59
2023-10-23T03:33:31.627Z,80.24
2023-10-23T03:35:58.252Z,80.05
2023-10-23T03:38:24.853Z,80.00
2023-10-23T03:40:59.360Z,79.87
2023-10-23T03:43:26.358Z,80.10
2023-10-23T03:45:53.028Z,79.78
2023-10-23T03:48:19.922Z,80.15
2023-10-23T03:50:46.608Z,80.95
2023-10-23T03:53:13.155Z,80.50
2023-10-23T03:55:39.846Z,80.89
2023-10-23T03:58:06.437Z,80.41
2023-10-23T04:00:33.077Z,79.85
2023-10-23T04:02:59.796Z,80.47
2023-10-23T04:05:26.423Z,81.10
2023-10-23T04:07:53.036Z,79.86
2023-10-23T04:10:19.680Z,79.94
2023-10-23T04:12:46.309Z,79.01
2023-10-23T04:15:12.864Z,78.75
2023-10-23T04:17:39.466Z,78.68
2023-10-23T04:20:06.685Z,79.32
2023-10-23T04:22:33.321Z,79.91
2023-10-23T04:25:00.023Z,78.93
2023-10-23T04:27:26.645Z,78.41
2023-10-23T04:29:54.470Z,79.55
2023-10-23T04:32:21.021Z,80.03
2023-10-23T04:34:47.548Z,79.39
2023-10-23T04:37:14.081Z,80.16
2023-10-23T04:39:40.788Z,80.18
2023-10-23T04:42:07.587Z,79.50
2023-10-23T04:44:35.130Z,79.99
2023-10-23T04:47:01.743Z,80.41
2023-10-23T04:49:28.625Z,79.96
2023-10-23T04:51:55.349Z,80.84
2023-10-23T04:54:21.992Z,80.80
2023-10-23T04:56:48.604Z,80.47
2023-10-23T04:59:15.192Z,80.18
2023-10-23T05:01:41.847Z,80.73
2023-10-23T05:04:08.633Z,79.74
2023-10-23T05:06:35.420Z,78.25
2023-10-23T05:09:02.092Z,78.50
2023-10-23T05:11:28.761Z,77.97
2023-10-23T05:13:55.321Z,78.44
2023-10-23T05:16:22.050Z,78.90
2023-10-23T05:18:48.897Z,78.74
2023-10-23T05:21:15.673Z,77.65
2023-10-23T05:23:43.039Z,77.06
2023-10-23T05:26:12.771Z,78.64
2023-10-23T05:28:41.446Z,78.83
2023-10-23T05:31:15.613Z,78.56
2023-10-23T05:33:42.289Z,78.42
2023-10-23T05:36:11.023Z,78.87
2023-10-23T05:38:38.219Z,79.52
2023-10-23T05:41:08.905Z,78.56
2023-10-23T05:43:35.697Z,77.76
2023-10-23T05:46:04.513Z,80.15
2023-10-23T05:48:32.107Z,82.38
2023-10-23T05:51:00.030Z,80.23
2023-10-23T05:53:27.309Z,79.75
2023-10-23T05:55:54.388Z,80.37
2023-10-23T05:58:21.364Z,79.88
2023-10-23T06:00:48.063Z,79.71
2023-10-23T06:03:14.732Z,80.09
2023-10-23T06:05:42.297Z,80.18
2023-10-23T06:08:10.140Z,79.88
2023-10-23T06:10:46.571Z,81.67
2023-10-23T06:13:13.206Z,82.15
2023-10-23T06:15:40.765Z,81.27
2023-10-23T06:18:07.852Z,81.46
2023-10-23T06:20:35.493Z,81.17
2023-10-23T06:23:02.524Z,81.34
2023-10-23T06:25:32.219Z,81.79
2023-10-23T06:27:59.965Z,81.63
2023-10-23T06:30:26.803Z,80.92
2023-10-23T06:32:53.447Z,79.82
2023-10-23T06:35:19.963Z,79.42
2023-10-23T06:37:46.667Z,79.36
2023-10-23T06:40:13.337Z,80.16
2023-10-23T06:42:40.000Z,81.22
2023-10-23T06:45:07.714Z,81.65
2023-10-23T06:47:35.128Z,83.14
2023-10-23T06:50:03.692Z,83.75
2023-10-23T06:52:30.182Z,82.65
2023-10-23T06:54:56.746Z,83.55
2023-10-23T06:57:23.446Z,82.33
2023-10-23T06:59:51.504Z,82.53
2023-10-23T07:02:18.183Z,82.90
2023-10-23T07:04:44.809Z,82.53
2023-10-23T07:07:26.113Z,82.69
2023-10-23T07:10:00.348Z,82.44
2023-10-23T07:12:27.953Z,82.82
2023-10-23T07:14:54.681Z,83.12
2023-10-23T07:17:21.520Z,83.49
2023-10-23T07:19:48.160Z,83.94
2023-10-23T07:22:14.726Z,84.61
2023-10-23T07:24:42.983Z,84.13
2023-10-23T07:27:13.415Z,82.42
2023-10-23T07:29:40.451Z,83.83
2023-10-23T07:32:07.601Z,84.01
2023-10-23T07:34:34.347Z,83.79
2023-10-23T07:37:00.975Z,83.63
2023-10-23T07:39:27.554Z,82.50
2023-10-23T07:41:54.123Z,82.98
2023-10-23T07:44:21.879Z,83.22
2023-10-23T07:46:48.837Z,83.08
2023-10-23T07:49:15.696Z,83.15
2023-10-23T07:51:42.454Z,82.24
2023-10-23T07:54:09.287Z,81.94
2023-10-23T07:56:35.947Z,82.84
2023-10-23T07:59:02.740Z,82.88
2023-10-23T08:01:29.376Z,82.37
2023-10-23T08:03:56.197Z,82.12
2023-10-23T08:06:22.986Z,82.83
2023-10-23T08:08:49.520Z,82.70
2023-10-23T08:11:16.274Z,82.74
2023-10-23T08:13:43.401Z,82.30
2023-10-23T08:16:10.294Z,80.50
2023-10-23T08:18:39.893Z,80.36
2023-10-23T08:21:17.006Z,81.23
2023-10-23T08:23:47.236Z,80.89
2023-10-23T08:26:14.088Z,80.59
2023-10-23T08:31:24.833Z,79.86
2023-10-23T08:33:57.858Z,80.26
2023-10-23T08:36:24.826Z,79.64
2023-10-23T08:38:51.469Z,80.25
2023-10-23T08:41:18.246Z,80.12
2023-10-23T08:43:45.100Z,79.52
2023-10-23T08:46:11.791Z,79.09
2023-10-23T08:48:38.539Z,79.68
2023-10-23T08:51:08.208Z,79.44
2023-10-23T08:53:39.686Z,79.35
2023-10-23T08:56:08.118Z,79.92
2023-10-23T08:58:49.192Z,79.46
2023-10-23T09:01:17.368Z,80.63
2023-10-23T09:04:04.789Z,80.42
2023-10-23T09:06:31.426Z,81.28
2023-10-23T09:08:58.331Z,81.83
2023-10-23T09:11:49.359Z,81.64
2023-10-23T09:14:26.966Z,81.64
2023-10-23T09:16:56.589Z,81.03
2023-10-23T09:19:35.193Z,80.67
2023-10-23T09:22:01.854Z,79.87
2023-10-23T09:24:28.647Z,80.53
2023-10-23T09:26:55.326Z,80.89
2023-10-23T09:29:23.475Z,79.95
2023-10-23T09:31:51.295Z,79.47
2023-10-23T09:34:22.502Z,79.69
2023-10-23T09:36:53.617Z,78.92
2023-10-23T09:39:23.504Z,77.83
2023-10-23T09:41:50.783Z,77.62
2023-10-23T09:44:18.418Z,77.53
2023-10-23T09:46:48.989Z,77.70
2023-10-23T09:49:16.525Z,76.85
2023-10-23T09:51:44.467Z,76.76
2023-10-23T09:54:17.678Z,77.06
2023-10-23T09:56:51.839Z,76.58
2023-10-23T09:59:22.422Z,77.12
2023-10-23T10:01:53.485Z,76.58
2023-10-23T10:04:30.717Z,76.89
2023-10-23T10:07:10.262Z,76.10
2023-10-23T10:09:38.934Z,76.02
2023-10-23T10:12:06.743Z,75.71
2023-10-23T10:14:34.040Z,76.42
2023-10-23T10:17:02.541Z,76.77
2023-10-23T10:19:29.280Z,75.91
2023-10-23T10:22:05.957Z,76.16
2023-10-23T10:24:35.253Z,76.15
2023-10-23T10:27:04.809Z,75.67
2023-10-23T10:29:32.534Z,76.54
2023-10-23T10:32:13.853Z,76.26
2023-10-23T10:34:47.421Z,77.14
2023-10-23T10:39:47.825Z,75.62
2023-10-23T10:42:24.887Z,76.48
2023-10-23T10:45:11.235Z,74.70
2023-10-23T10:47:38.207Z,75.78
2023-10-23T10:50:06.212Z,74.56
2023-10-23T10:52:37.453Z,75.23
2023-10-23T10:55:07.735Z,74.40
2023-10-23T10:57:35.252Z,73.89
2023-10-23T11:00:02.336Z,73.36
2023-10-23T11:02:28.892Z,74.12
2023-10-23T11:04:55.692Z,74.92
2023-10-23T11:07:26.683Z,74.79
2023-10-23T11:09:54.905Z,74.41
2023-10-23T11:12:22.439Z,73.04
2023-10-23T11:14:49.191Z,74.88
2023-10-23T11:17:16.665Z,74.14
2023-10-23T11:19:58.131Z,74.54
2023-10-23T11:22:25.395Z,74.83
2023-10-23T11:24:52.913Z,73.43
2023-10-23T11:27:19.543Z,73.43
2023-10-23T11:29:48.304Z,73.49
2023-10-23T11:32:15.623Z,73.99
2023-10-23T11:34:43.180Z,74.32
2023-10-23T11:37:11.653Z,73.55
2023-10-23T11:39:40.577Z,73.58
2023-10-23T11:42:07.418Z,73.71
2023-10-23T11:44:35.718Z,73.39
2023-10-23T11:47:05.636Z,72.72
2023-10-23T11:49:33.127Z,73.34
2023-10-23T11:52:00.925Z,72.46
2023-10-23T11:54:29.337Z,72.06
2023-10-23T11:56:59.201Z,71.89
2023-10-23T11:59:26.916Z,72.38
2023-10-23T12:01:57.813Z,72.51
2023-10-23T12:04:24.661Z,71.88
2023-10-23T12:06:51.611Z,71.69
2023-10-23T12:09:18.284Z,71.31
2023-10-23T12:11:44.799Z,70.33
2023-10-23T12:14:11.424Z,71.21
2023-10-23T12:16:38.267Z,70.99
2023-10-23T12:19:05.332Z,71.18
2023-10-23T12:21:33.028Z,70.13
2023-10-23T12:23:59.639Z,70.45
2023-10-23T12:26:26.919Z,70.01
2023-10-23T12:28:53.565Z,70.00
2023-10-23T12:31:22.625Z,69.63
2023-10-23T12:33:50.244Z,69.78
2023-10-23T12:36:16.999Z,69.31
2023-10-23T12:38:43.666Z,70.38
2023-10-23T12:41:10.260Z,70.41
2023-10-23T12:43:37.016Z,69.43
2023-10-23T12:46:03.766Z,70.23
2023-10-23T12:48:30.510Z,70.43
2023-10-23T12:50:57.261Z,70.31
2023-10-23T12:53:23.882Z,70.07
2023-10-23T12:55:50.434Z,69.04
2023-10-23T12:58:17.190Z,69.77
2023-10-23T13:00:43.740Z,70.54
2023-10-23T13:03:10.404Z,70.20
2023-10-23T13:05:37.004Z,70.07
2023-10-23T13:08:04.430Z,70.28
2023-10-23T13:10:32.060Z,69.96
2023-10-23T13:12:58.734Z,69.47
2023-10-23T13:15:26.051Z,69.16
2023-10-23T13:17:55.168Z,67.93
2023-10-23T13:21:28.767Z,68.20
2023-10-23T13:23:08.712Z,67.99
2023-10-23T13:25:35.973Z,68.12
2023-10-23T13:28:02.807Z,67.61
2023-10-23T13:30:29.946Z,67.78
2023-10-23T13:32:56.838Z,68.08
2023-10-23T13:35:23.504Z,67.44
2023-10-23T13:37:50.360Z,67.41
2023-10-23T13:40:17.100Z,68.59
2023-10-23T13:42:44.165Z,69.29
2023-10-23T13:45:11.026Z,69.07
2023-10-23T13:47:37.842Z,68.92
2023-10-23T13:50:05.225Z,68.83
2023-10-23T13:52:31.843Z,68.74
2023-10-23T13:54:59.242Z,68.75
2023-10-23T13:57:26.368Z,68.43
2023-10-23T13:59:53.073Z,67.96
2023-10-23T14:02:19.729Z,67.96
2023-10-23T14:04:46.413Z,67.84
2023-10-23T14:07:13.342Z,67.95
2023-10-23T14:09:45.440Z,66.75
2023-10-23T14:12:13.612Z,67.57
2023-10-23T14:14:40.400Z,68.05
2023-10-23T14:17:07.192Z,67.92
2023-10-23T14:19:43.483Z,67.63
2023-10-23T14:22:14.544Z,67.95
2023-10-23T14:24:41.458Z,68.34
2023-10-23T14:27:08.336Z,68.83
2023-10-23T14:29:34.943Z,68.80
2023-10-23T14:32:02.124Z,68.81
2023-10-23T14:34:29.139Z,68.40
2023-10-23T14:36:56.518Z,68.83
2023-10-23T14:39:27.686Z,69.66
2023-10-23T14:41:55.667Z,69.14
2023-10-23T14:44:24.416Z,69.60
2023-10-23T14:46:51.947Z,70.47
2023-10-23T14:49:19.077Z,69.66
2023-10-23T14:51:45.854Z,69.81
2023-10-23T14:54:12.390Z,69.80
2023-10-23T14:56:39.368Z,70.07
2023-10-23T14:59:06.005Z,70.06
2023-10-23T15:01:32.923Z,69.74
2023-10-23T15:04:01.333Z,69.91
2023-10-23T15:06:28.177Z,70.33
2023-10-23T15:08:54.853Z,70.43
2023-10-23T15:11:23.283Z,70.19
2023-10-23T15:13:50.786Z,70.55
2023-10-23T15:16:17.674Z,69.88
2023-10-23T15:18:44.300Z,70.35
2023-10-23T15:21:12.169Z,70.48
2023-10-23T15:23:39.264Z,70.52
2023-10-23T15:26:05.803Z,71.03
2023-10-23T15:28:37.062Z,70.26
2023-10-23T15:31:06.314Z,70.47
2023-10-23T15:33:35.220Z,71.38
2023-10-23T15:36:02.951Z,72.96
2023-10-23T15:38:30.512Z,73.50
2023-10-23T15:41:07.217Z,75.09
2023-10-23T15:43:34.138Z,75.07
2023-10-23T15:46:00.971Z,75.58
2023-10-23T15:48:27.694Z,76.41
2023-10-23T15:50:59.116Z,76.52
2023-10-23T15:53:28.000Z,76.99
2023-10-23T15:55:55.792Z,77.40
2023-10-23T15:58:23.692Z,77.87
2023-10-23T16:00:55.269Z,78.61
2023-10-23T16:03:22.435Z,78.30
2023-10-23T16:05:49.981Z,78.82
2023-10-23T16:08:17.982Z,79.37
2023-10-23T16:10:49.288Z,80.33
2023-10-23T16:13:17.042Z,81.48
2023-10-23T16:15:44.899Z,81.59
2023-10-23T16:18:18.639Z,80.86
2023-10-23T16:20:50.809Z,80.81
2023-10-23T16:23:17.665Z,80.48
2023-10-23T16:25:45.170Z,81.24
2023-10-23T16:28:12.067Z,80.93
2023-10-23T16:30:39.792Z,81.18
2023-10-23T16:33:07.054Z,81.49
2023-10-23T16:35:37.585Z,82.11
2023-10-23T16:38:05.068Z,81.81
2023-10-23T16:40:34.681Z,82.20
2023-10-23T16:43:02.094Z,82.32
2023-10-23T16:45:29.327Z,82.67
2023-10-23T16:47:57.037Z,82.94
2023-10-23T16:50:24.146Z,83.34
2023-10-23T16:52:52.510Z,82.83
2023-10-23T16:55:19.456Z,83.84
2023-10-23T16:57:46.464Z,82.85
2023-10-23T17:00:16.497Z,82.06
2023-10-23T17:02:44.522Z,81.92
2023-10-23T17:05:13.469Z,82.22
2023-10-23T17:07:43.576Z,82.27
2023-10-23T17:10:10.695Z,82.41
2023-10-23T17:12:37.388Z,82.44
2023-10-23T17:15:04.290Z,82.42
2023-10-23T17:17:31.014Z,82.55
2023-10-23T17:19:59.019Z,82.31
2023-10-23T17:22:25.586Z,83.28
2023-10-23T17:24:52.330Z,84.45
2023-10-23T17:27:18.948Z,83.77
2023-10-23T17:29:45.582Z,83.62
2023-10-23T17:32:12.361Z,83.84
2023-10-23T17:34:39.183Z,83.93
2023-10-23T17:37:08.758Z,84.06
2023-10-23T17:39:35.459Z,83.89
2023-10-23T17:42:02.825Z,84.60
2023-10-23T17:44:30.255Z,84.41
2023-10-23T17:46:56.897Z,83.48
2023-10-23T17:49:23.838Z,83.31
2023-10-23T17:51:51.031Z,84.12
2023-10-23T17:54:18.026Z,84.56
2023-10-23T17:56:44.610Z,84.45
2023-10-23T17:59:12.494Z,85.76
2023-10-23T18:01:41.209Z,86.56
2023-10-23T18:04:10.718Z,85.99
2023-10-23T18:06:38.230Z,84.52
2023-10-23T18:09:05.614Z,84.99
2023-10-23T18:11:33.487Z,84.79
2023-10-23T18:14:00.235Z,84.94
2023-10-23T18:16:27.022Z,84.68
2023-10-23T18:18:53.684Z,85.16
2023-10-23T18:21:20.324Z,85.36
2023-10-23T18:23:46.891Z,84.77
2023-10-23T18:26:13.466Z,84.71
2023-10-23T18:28:40.062Z,84.23
2023-10-23T18:31:06.763Z,85.37
2023-10-23T18:33:33.883Z,85.24
2023-10-23T18:36:05.393Z,85.64
2023-10-23T18:38:32.430Z,86.27
2023-10-23T18:40:59.128Z,85.78
2023-10-23T18:43:28.121Z,85.26
2023-10-23T18:45:56.298Z,84.47
2023-10-23T18:48:23.190Z,85.38
2023-10-23T18:50:59.513Z,85.02
2023-10-23T18:53:26.108Z,85.22
2023-10-23T18:55:52.890Z,84.83
2023-10-23T18:58:19.769Z,84.56
2023-10-23T19:00:46.419Z,85.27
2023-10-23T19:03:13.059Z,85.55
2023-10-23T19:05:39.852Z,85.60
2023-10-23T19:08:06.729Z,85.21
2023-10-23T19:10:33.370Z,85.07
2023-10-23T19:13:00.171Z,85.50
2023-10-23T19:15:26.777Z,84.99
2023-10-23T19:17:54.828Z,84.75
2023-10-23T19:20:23.566Z,85.00
2023-10-23T19:22:50.133Z,84.90
2023-10-23T19:25:18.003Z,84.15
2023-10-23T19:27:44.669Z,83.60
2023-10-23T19:30:13.568Z,83.92
2023-10-23T19:32:42.147Z,83.93
2023-10-23T19:35:10.424Z,84.23
2023-10-23T19:37:38.050Z,84.29
2023-10-23T19:40:05.986Z,85.08
2023-10-23T19:42:40.586Z,85.51
2023-10-23T19:45:08.765Z,85.63
2023-10-23T19:47:35.869Z,84.90
2023-10-23T19:50:04.632Z,84.19
2023-10-23T19:52:32.872Z,84.64
2023-10-23T19:55:03.165Z,84.46
2023-10-23T19:57:46.531Z,84.42
2023-10-23T20:00:13.662Z,84.57
2023-10-23T20:02:40.234Z,85.16
2023-10-23T20:05:07.092Z,84.33
2023-10-23T20:07:33.714Z,84.69
2023-10-23T20:10:00.505Z,84.80
2023-10-23T20:12:27.168Z,85.68
2023-10-23T20:14:54.343Z,85.82
2023-10-23T20:17:20.892Z,85.60
2023-10-23T20:19:47.633Z,85.04
2023-10-23T20:22:14.263Z,84.88
2023-10-23T20:24:40.793Z,84.76
2023-10-23T20:27:07.438Z,85.44
2023-10-23T20:29:34.091Z,85.25
2023-10-23T20:32:01.007Z,84.83
2023-10-23T20:34:27.635Z,85.09
2023-10-23T20:36:54.162Z,84.46
2023-10-23T20:39:20.689Z,84.39
2023-10-23T20:41:47.272Z,84.10
2023-10-23T20:44:14.039Z,83.90
2023-10-23T20:46:40.632Z,83.71
2023-10-23T20:49:07.414Z,84.00
2023-10-23T20:51:33.965Z,84.42
2023-10-23T20:54:00.553Z,84.70
2023-10-23T20:56:27.096Z,84.04
2023-10-23T20:58:54.758Z,84.18
2023-10-23T21:01:21.430Z,83.74
2023-10-23T21:03:50.863Z,83.90
2023-10-23T21:06:20.852Z,84.83
2023-10-23T21:08:47.451Z,83.99
2023-10-23T21:11:13.934Z,84.00
2023-10-23T21:13:40.595Z,85.06
2023-10-23T21:16:08.460Z,83.99
2023-10-23T21:18:35.270Z,84.71
2023-10-23T21:21:01.862Z,85.12
2023-10-23T21:23:29.948Z,84.74
2023-10-23T21:25:56.690Z,85.70
2023-10-23T21:28:26.721Z,84.67
2023-10-23T21:30:54.630Z,85.09
2023-10-23T21:33:21.304Z,85.75
2023-10-23T21:35:48.056Z,84.65
2023-10-23T21:38:14.983Z,84.43
2023-10-23T21:40:45.942Z,84.04
2023-10-23T21:43:12.960Z,83.45
2023-10-23T21:45:41.108Z,83.87
2023-10-23T21:48:08.325Z,84.01
2023-10-23T21:50:35.036Z,83.38
2023-10-23T21:53:01.816Z,83.01
2023-10-23T21:55:28.839Z,83.66
2023-10-23T21:57:55.675Z,83.44
2023-10-23T22:00:29.732Z,83.77
2023-10-23T22:02:57.498Z,84.42
2023-10-23T22:05:24.551Z,84.39
2023-10-23T22:07:52.643Z,84.14
2023-10-23T22:10:20.122Z,85.19
2023-10-23T22:12:47.154Z,84.94
2023-10-23T22:15:13.807Z,84.35
2023-10-23T22:17:40.483Z,85.10
2023-10-23T22:20:07.735Z,84.52
2023-10-23T22:22:34.580Z,84.11
2023-10-23T22:25:01.195Z,84.54
2023-10-23T22:27:28.268Z,83.45
2023-10-23T22:29:54.794Z,83.78
2023-10-23T22:32:21.393Z,83.36
2023-10-23T22:34:47.986Z,85.31
2023-10-23T22:37:58.136Z,84.80
2023-10-23T22:40:04.377Z,84.63
2023-10-23T22:42:31.010Z,83.37
2023-10-23T22:44:57.609Z,83.54
2023-10-23T22:47:24.376Z,83.00
2023-10-23T22:49:51.325Z,83.35
2023-10-23T22:52:18.152Z,82.75
2023-10-23T22:54:45.092Z,84.04
2023-10-23T22:57:13.232Z,83.97
2023-10-23T22:59:40.097Z,83.76
2023-10-23T23:02:07.294Z,82.78
2023-10-23T23:04:34.306Z,83.11
2023-10-23T23:07:01.757Z,83.87
2023-10-23T23:09:28.578Z,85.15
2023-10-23T23:11:55.893Z,83.21
2023-10-23T23:14:22.920Z,82.90
2023-10-23T23:16:50.564Z,83.16
2023-10-23T23:19:23.142Z,82.52
2023-10-23T23:21:54.819Z,83.16
2023-10-23T23:24:21.630Z,83.23
2023-10-23T23:26:48.328Z,83.89
2023-10-23T23:29:15.114Z,83.89
2023-10-23T23:31:41.680Z,83.92
2023-10-23T23:34:08.242Z,83.09
2023-10-23T23:36:34.904Z,82.98
2023-10-23T23:39:01.492Z,83.13
2023-10-23T23:41:28.060Z,83.36
2023-10-23T23:43:54.749Z,83.32
2023-10-23T23:46:21.315Z,83.16
2023-10-23T23:48:47.928Z,83.60
2023-10-23T23:51:14.467Z,83.43
2023-10-23T23:53:41.107Z,83.18
2023-10-23T23:56:07.690Z,83.58
2023-10-23T23:58:34.217Z,82.80
